Time;durP1;ratioP1;P1;durP2;ratioP2;P2;SDS_P1;SDS_P2;PMS_P1;PMS_P2;Temp;Humidity;BMP_temperature;BMP_pressure;BME280_temperature;BME280_humidity;BME280_pressure;Samples;Min_cycle;Max_cycle;Signal;HPM_P1;HPM_P2
2021/08/19 00:01:36;;;;;;;3.90;3.60;;;18.90;99.90;;;;;;5119294;28;20846;-77
2021/08/19 00:04:04;;;;;;;4.20;3.97;;;18.90;99.90;;;;;;5129720;28;20484;-77
2021/08/19 00:06:30;;;;;;;4.37;4.07;;;18.90;99.90;;;;;;5118611;27;20495;-77
2021/08/19 00:08:57;;;;;;;3.93;3.73;;;18.90;99.90;;;;;;5128404;27;20477;-77
2021/08/19 00:11:24;;;;;;;3.50;3.30;;;18.90;99.90;;;;;;5128748;27;20539;-77
2021/08/19 00:13:50;;;;;;;4.10;3.80;;;18.90;99.90;;;;;;5120731;27;20525;-77
2021/08/19 00:16:16;;;;;;;4.23;3.83;;;18.90;99.90;;;;;;5121904;27;20477;-76
2021/08/19 00:18:43;;;;;;;4.10;3.80;;;18.90;99.90;;;;;;5130028;27;20508;-77
2021/08/19 00:21:11;;;;;;;5.20;4.80;;;18.90;99.90;;;;;;5126748;27;20532;-77
2021/08/19 00:23:38;;;;;;;5.60;5.17;;;18.90;99.90;;;;;;5122295;27;20532;-77
2021/08/19 00:26:05;;;;;;;5.73;5.33;;;18.90;99.90;;;;;;5133091;27;20602;-77
2021/08/19 00:28:32;;;;;;;4.70;4.40;;;18.90;99.90;;;;;;5121321;27;20476;-77
2021/08/19 00:30:59;;;;;;;4.73;4.43;;;18.90;99.90;;;;;;5127854;27;20524;-77
2021/08/19 00:33:25;;;;;;;4.93;4.63;;;18.90;99.90;;;;;;5128883;27;20472;-77
2021/08/19 00:35:52;;;;;;;5.00;4.70;;;19.00;99.90;;;;;;5120266;27;20524;-77
2021/08/19 00:38:20;;;;;;;4.53;4.23;;;19.00;99.90;;;;;;5132700;27;20557;-77
2021/08/19 00:40:46;;;;;;;5.17;4.87;;;19.00;99.90;;;;;;5123118;27;20469;-77
2021/08/19 00:43:13;;;;;;;5.43;5.03;;;19.00;99.90;;;;;;5125573;27;20441;-77
2021/08/19 00:45:39;;;;;;;5.50;5.10;;;19.00;99.90;;;;;;5130514;27;21014;-77
2021/08/19 00:48:07;;;;;;;5.13;4.73;;;19.00;99.90;;;;;;5119186;27;20529;-76
2021/08/19 00:50:34;;;;;;;5.53;5.13;;;19.00;99.90;;;;;;5135531;27;20532;-76
2021/08/19 00:53:01;;;;;;;6.07;5.67;;;19.00;99.90;;;;;;5136171;27;20483;-76
2021/08/19 00:55:30;;;;;;;6.43;5.93;;;19.10;99.90;;;;;;5130846;27;20528;-77
2021/08/19 00:57:57;;;;;;;5.87;5.47;;;19.10;99.90;;;;;;5119098;27;20488;-77
2021/08/19 01:00:25;;;;;;;5.50;5.10;;;19.10;99.90;;;;;;5132128;27;20473;-77
2021/08/19 01:02:54;;;;;;;9.57;5.77;;;19.10;99.90;;;;;;5123539;27;20520;-77
2021/08/19 01:05:22;;;;;;;6.20;5.77;;;19.10;99.90;;;;;;5123680;27;20459;-77
2021/08/19 01:07:49;;;;;;;6.23;5.73;;;19.10;99.90;;;;;;5131235;27;20497;-77
2021/08/19 01:10:15;;;;;;;6.53;5.93;;;19.10;99.90;;;;;;5130918;27;20539;-77
2021/08/19 01:12:44;;;;;;;6.80;5.90;;;19.10;99.90;;;;;;5135843;27;20548;-77
2021/08/19 01:15:12;;;;;;;6.63;6.23;;;19.10;99.90;;;;;;5133073;27;20483;-77
2021/08/19 01:17:38;;;;;;;6.67;6.17;;;19.10;99.90;;;;;;5135471;27;20531;-77
2021/08/19 01:20:07;;;;;;;5.93;5.53;;;19.10;99.90;;;;;;5118313;27;20582;-77
2021/08/19 01:22:34;;;;;;;6.57;6.10;;;19.10;99.90;;;;;;5130505;27;20532;-77
2021/08/19 01:25:00;;;;;;;7.03;6.43;;;19.10;99.90;;;;;;5124112;27;21003;-77
2021/08/19 01:27:30;;;;;;;6.33;5.93;;;19.10;99.90;;;;;;5122700;27;20529;-77
2021/08/19 01:29:56;;;;;;;6.00;5.60;;;19.10;99.90;;;;;;5131850;27;20803;-77
2021/08/19 01:32:23;;;;;;;7.23;6.73;;;19.10;99.90;;;;;;5118743;27;20524;-77
2021/08/19 01:34:52;;;;;;;6.40;6.00;;;19.10;99.90;;;;;;5135286;27;20441;-77
2021/08/19 01:37:19;;;;;;;7.57;6.90;;;19.10;99.90;;;;;;5123288;27;20448;-77
2021/08/19 01:39:45;;;;;;;9.13;6.50;;;19.00;99.90;;;;;;5129944;27;20563;-77
2021/08/19 01:42:12;;;;;;;7.60;7.10;;;19.00;99.90;;;;;;5117886;27;20456;-77
2021/08/19 01:44:40;;;;;;;6.80;6.40;;;19.00;99.90;;;;;;5123783;27;20527;-77
2021/08/19 01:47:09;;;;;;;7.87;7.27;;;19.00;99.90;;;;;;5120737;27;20847;-76
2021/08/19 01:49:36;;;;;;;7.97;7.27;;;19.00;99.90;;;;;;5131267;27;21191;-76
2021/08/19 01:52:04;;;;;;;7.27;6.77;;;19.00;99.90;;;;;;5131729;27;20803;-76
2021/08/19 01:54:31;;;;;;;7.47;6.87;;;19.00;99.90;;;;;;5135044;27;20531;-77
2021/08/19 01:56:58;;;;;;;7.73;7.13;;;19.00;99.90;;;;;;5121987;27;20477;-77
2021/08/19 01:59:27;;;;;;;7.83;7.10;;;18.90;99.90;;;;;;5130970;27;20567;-77
2021/08/19 02:01:55;;;;;;;8.63;7.93;;;18.90;99.90;;;;;;5117947;27;20483;-77
2021/08/19 02:04:21;;;;;;;8.50;7.90;;;19.00;99.90;;;;;;5127339;27;20473;-76
2021/08/19 02:06:48;;;;;;;6.90;6.40;;;19.00;99.90;;;;;;5125607;27;20521;-77
2021/08/19 02:09:14;;;;;;;7.33;6.73;;;18.90;99.90;;;;;;5119618;27;20534;-77
2021/08/19 02:11:41;;;;;;;7.47;6.97;;;18.90;99.90;;;;;;5131059;27;21019;-76
2021/08/19 02:14:08;;;;;;;7.20;6.60;;;19.00;99.90;;;;;;5119729;27;20452;-77
2021/08/19 02:16:35;;;;;;;6.80;6.30;;;19.00;99.90;;;;;;5124186;27;20853;-77
2021/08/19 02:19:03;;;;;;;7.53;6.93;;;19.00;99.90;;;;;;5121124;27;20465;-76
2021/08/19 02:21:30;;;;;;;7.10;6.40;;;19.00;99.90;;;;;;5131108;27;20531;-77
2021/08/19 02:23:56;;;;;;;6.77;6.27;;;19.00;99.90;;;;;;5118178;27;20471;-76
2021/08/19 02:26:23;;;;;;;7.60;7.00;;;19.00;99.90;;;;;;5126520;27;20438;-77
2021/08/19 02:28:49;;;;;;;6.83;6.27;;;19.00;99.90;;;;;;5124490;27;20540;-77
2021/08/19 02:31:16;;;;;;;6.20;5.80;;;18.90;99.90;;;;;;5119035;27;20529;-76
2021/08/19 02:33:42;;;;;;;6.60;6.10;;;18.90;99.90;;;;;;5130736;27;20536;-77
2021/08/19 02:36:10;;;;;;;6.90;6.50;;;18.90;99.90;;;;;;5119687;27;20491;-76
2021/08/19 02:38:37;;;;;;;8.07;6.80;;;18.90;99.90;;;;;;5124170;27;20496;-77
2021/08/19 02:41:03;;;;;;;6.97;6.47;;;18.90;99.90;;;;;;5127135;27;20532;-77
2021/08/19 02:43:30;;;;;;;6.73;6.23;;;18.90;99.90;;;;;;5116957;27;20536;-77
2021/08/19 02:45:57;;;;;;;6.97;6.50;;;18.80;99.90;;;;;;5130080;27;20469;-76
2021/08/19 02:48:23;;;;;;;6.63;6.10;;;18.80;99.90;;;;;;5121529;27;20535;-77
2021/08/19 02:50:49;;;;;;;6.47;6.07;;;18.80;99.90;;;;;;5129283;27;20543;-77
2021/08/19 02:53:17;;;;;;;6.53;6.03;;;18.80;99.90;;;;;;5134096;27;20532;-77
2021/08/19 02:55:44;;;;;;;7.13;6.63;;;18.80;99.90;;;;;;5131343;27;20527;-77
2021/08/19 02:58:10;;;;;;;6.87;6.37;;;18.80;99.90;;;;;;5119293;27;20532;-77
2021/08/19 03:00:37;;;;;;;6.27;5.87;;;18.70;99.90;;;;;;5124018;27;20565;-76
2021/08/19 03:03:03;;;;;;;6.77;6.00;;;18.70;99.90;;;;;;5127072;27;20543;-76
2021/08/19 03:05:30;;;;;;;5.47;5.10;;;18.60;99.90;;;;;;5116882;27;20516;-77
2021/08/19 03:07:57;;;;;;;6.70;5.10;;;18.60;99.90;;;;;;5129491;27;20501;-77
2021/08/19 03:10:25;;;;;;;6.50;5.20;;;18.50;99.90;;;;;;5120671;27;20448;-77
2021/08/19 03:12:51;;;;;;;6.50;6.00;;;18.50;99.90;;;;;;5122067;27;20869;-78
2021/08/19 03:15:18;;;;;;;5.63;5.23;;;18.60;99.90;;;;;;5119851;27;20477;-78
2021/08/19 03:17:44;;;;;;;5.77;5.37;;;18.60;99.90;;;;;;5130038;27;20532;-78
2021/08/19 03:20:12;;;;;;;5.70;5.30;;;18.60;99.90;;;;;;5119232;28;20572;-78
2021/08/19 03:22:39;;;;;;;6.57;6.03;;;18.60;99.90;;;;;;5123482;28;20441;-78
2021/08/19 03:25:07;;;;;;;6.50;5.73;;;18.60;99.90;;;;;;5126862;28;20451;-78
2021/08/19 03:27:35;;;;;;;9.73;6.23;;;18.60;99.90;;;;;;5116628;28;20441;-77
2021/08/19 03:30:02;;;;;;;5.93;5.43;;;18.60;99.90;;;;;;5128901;28;20864;-77
2021/08/19 03:32:28;;;;;;;6.43;5.93;;;18.60;99.90;;;;;;5121643;28;21122;-77
2021/08/19 03:34:55;;;;;;;6.00;5.50;;;18.60;99.90;;;;;;5121184;28;20481;-77
2021/08/19 03:37:24;;;;;;;6.93;6.33;;;18.60;99.90;;;;;;5129050;28;20528;-77
2021/08/19 03:39:51;;;;;;;7.00;6.47;;;18.60;99.90;;;;;;5116614;27;20529;-77
2021/08/19 03:42:17;;;;;;;6.30;5.70;;;18.70;99.90;;;;;;5130621;27;20449;-77
2021/08/19 03:44:45;;;;;;;7.13;6.43;;;18.70;99.90;;;;;;5127813;27;20927;-77
2021/08/19 03:47:12;;;;;;;6.00;5.60;;;18.70;99.90;;;;;;5122929;27;20503;-78
2021/08/19 03:49:38;;;;;;;6.07;5.67;;;18.70;99.90;;;;;;5134194;27;20444;-77
2021/08/19 03:52:05;;;;;;;6.70;6.10;;;18.70;99.90;;;;;;5134549;27;20853;-78
2021/08/19 03:54:32;;;;;;;6.17;5.77;;;18.70;99.90;;;;;;5137494;27;20440;-78
2021/08/19 03:56:58;;;;;;;6.80;6.20;;;18.60;99.90;;;;;;5124471;27;20478;-77
2021/08/19 03:59:25;;;;;;;6.20;5.70;;;18.70;99.90;;;;;;5133408;27;20556;-77
2021/08/19 04:01:53;;;;;;;7.27;6.50;;;18.70;99.90;;;;;;5120173;27;20449;-78
2021/08/19 04:04:19;;;;;;;6.70;6.10;;;18.70;99.90;;;;;;5129839;27;20895;-78
2021/08/19 04:06:46;;;;;;;6.97;6.37;;;18.70;99.90;;;;;;5127308;27;20547;-77
2021/08/19 04:09:12;;;;;;;6.20;5.60;;;18.70;99.90;;;;;;5122543;27;20528;-77
2021/08/19 04:11:39;;;;;;;6.40;6.00;;;18.70;99.90;;;;;;5133508;27;20472;-77
2021/08/19 04:14:05;;;;;;;7.00;6.43;;;18.70;99.90;;;;;;5122103;27;20531;-77
2021/08/19 04:16:32;;;;;;;6.13;5.70;;;18.70;99.90;;;;;;5126456;27;20480;-77
2021/08/19 04:18:59;;;;;;;7.13;6.00;;;18.60;99.90;;;;;;5124065;27;20533;-77
2021/08/19 04:21:26;;;;;;;5.40;5.00;;;18.60;99.90;;;;;;5133202;27;20904;-77
2021/08/19 04:23:53;;;;;;;6.03;5.53;;;18.70;99.90;;;;;;5133386;27;20446;-77
2021/08/19 04:26:19;;;;;;;5.60;5.10;;;18.70;99.90;;;;;;5123508;27;20468;-78
2021/08/19 04:28:45;;;;;;;4.83;4.47;;;18.70;99.90;;;;;;5125745;27;20530;-77
2021/08/19 04:31:12;;;;;;;4.50;4.20;;;18.70;99.90;;;;;;5129111;27;20523;-77
2021/08/19 04:33:39;;;;;;;7.03;4.20;;;18.70;99.90;;;;;;5119264;27;20960;-77
2021/08/19 04:36:06;;;;;;;5.40;5.00;;;18.70;99.90;;;;;;5130440;27;20472;-78
2021/08/19 04:38:34;;;;;;;4.07;3.73;;;18.70;99.90;;;;;;5125292;27;20445;-78
2021/08/19 04:41:00;;;;;;;4.30;3.90;;;18.70;99.90;;;;;;5122628;27;20840;-77
2021/08/19 04:43:27;;;;;;;4.20;3.70;;;18.80;99.90;;;;;;5132987;27;20457;-78
2021/08/19 04:45:53;;;;;;;4.33;3.90;;;18.90;99.90;;;;;;5136380;27;20472;-77
2021/08/19 04:48:20;;;;;;;3.57;3.37;;;19.00;99.90;;;;;;5128700;27;20481;-77
2021/08/19 04:50:46;;;;;;;4.50;4.10;;;18.90;99.90;;;;;;5126655;27;20480;-77
2021/08/19 04:53:14;;;;;;;4.20;3.90;;;19.00;99.90;;;;;;5135200;27;21010;-78
2021/08/19 04:55:41;;;;;;;4.60;3.90;;;19.00;99.90;;;;;;5134317;27;20859;-78
2021/08/19 04:58:08;;;;;;;4.37;4.07;;;19.00;99.90;;;;;;5121354;27;20527;-78
2021/08/19 05:00:34;;;;;;;3.90;3.50;;;18.90;99.90;;;;;;5126568;27;20568;-78
2021/08/19 05:03:01;;;;;;;4.17;3.97;;;18.90;99.90;;;;;;5128407;27;20469;-79
2021/08/19 05:05:28;;;;;;;3.97;3.60;;;18.90;99.90;;;;;;5118969;27;20482;-79
2021/08/19 05:07:54;;;;;;;4.20;4.00;;;18.90;99.90;;;;;;5131477;27;20495;-78
2021/08/19 05:10:22;;;;;;;4.63;4.33;;;19.00;99.90;;;;;;5122574;27;20448;-76
2021/08/19 05:12:49;;;;;;;4.43;4.20;;;19.10;99.90;;;;;;5121715;27;20533;-76
2021/08/19 05:15:15;;;;;;;5.47;4.97;;;19.20;99.90;;;;;;5121773;27;21018;-76
2021/08/19 05:17:42;;;;;;;4.93;4.53;;;19.20;99.90;;;;;;5126746;27;20515;-76
2021/08/19 05:20:09;;;;;;;4.73;4.43;;;19.30;99.90;;;;;;5129778;27;20564;-76
2021/08/19 05:22:36;;;;;;;5.83;5.50;;;19.40;99.90;;;;;;5122992;27;20441;-76
2021/08/19 05:25:03;;;;;;;4.87;4.53;;;19.40;99.90;;;;;;5125001;27;20481;-76
2021/08/19 05:27:30;;;;;;;4.87;4.57;;;19.40;99.90;;;;;;5131165;27;20510;-76
2021/08/19 05:29:57;;;;;;;5.87;5.37;;;19.40;99.90;;;;;;5117391;27;20501;-76
2021/08/19 05:32:23;;;;;;;6.10;5.50;;;19.40;99.90;;;;;;5130137;27;20470;-77
2021/08/19 05:34:50;;;;;;;6.27;5.87;;;19.40;99.90;;;;;;5127971;27;20468;-76
2021/08/19 05:37:17;;;;;;;6.40;5.53;;;19.40;99.90;;;;;;5119713;27;20533;-77
2021/08/19 05:39:43;;;;;;;5.77;5.23;;;19.50;99.90;;;;;;5130301;27;20522;-77
2021/08/19 05:42:10;;;;;;;6.17;5.77;;;19.60;99.90;;;;;;5119655;27;20472;-77
2021/08/19 05:44:38;;;;;;;5.63;5.23;;;19.80;99.90;;;;;;5123295;27;20500;-77
2021/08/19 05:47:05;;;;;;;6.43;5.80;;;20.00;99.90;;;;;;5125508;27;20979;-77
2021/08/19 05:49:34;;;;;;;5.60;4.70;;;20.10;99.90;;;;;;5114903;27;20506;-77
2021/08/19 05:52:01;;;;;;;5.23;4.50;;;20.30;99.90;;;;;;5130252;27;20452;-77
2021/08/19 05:54:28;;;;;;;5.63;5.23;;;20.40;99.90;;;;;;5115551;27;20442;-77
2021/08/19 05:56:54;;;;;;;5.27;4.83;;;20.50;99.90;;;;;;5129809;27;20528;-77
2021/08/19 05:59:21;;;;;;;4.57;4.37;;;20.50;99.90;;;;;;5116221;27;20544;-77
2021/08/19 06:01:49;;;;;;;5.00;4.50;;;20.60;99.90;;;;;;5125739;27;20593;-77
2021/08/19 06:04:15;;;;;;;4.73;4.33;;;20.60;99.90;;;;;;5124048;27;20448;-77
2021/08/19 06:06:42;;;;;;;4.70;4.33;;;20.60;99.90;;;;;;5117826;27;20524;-77
2021/08/19 06:09:08;;;;;;;4.13;3.83;;;20.60;99.90;;;;;;5129256;27;20987;-77
2021/08/19 06:11:34;;;;;;;5.33;4.83;;;20.60;99.90;;;;;;5118245;27;20532;-77
2021/08/19 06:14:01;;;;;;;5.50;5.00;;;20.60;99.90;;;;;;5123176;27;20983;-77
2021/08/19 06:16:27;;;;;;;5.13;4.50;;;20.60;99.90;;;;;;5131700;27;20524;-77
2021/08/19 06:18:57;;;;;;;4.60;4.20;;;20.60;99.90;;;;;;5115656;27;20562;-76
2021/08/19 06:21:24;;;;;;;8.73;5.30;;;20.50;99.90;;;;;;5128553;27;20477;-77
2021/08/19 06:23:50;;;;;;;4.63;4.33;;;20.40;99.90;;;;;;5120059;27;20445;-76
2021/08/19 06:26:17;;;;;;;5.43;4.23;;;20.40;99.90;;;;;;5121054;27;20530;-76
2021/08/19 06:28:43;;;;;;;5.13;4.67;;;20.40;99.90;;;;;;5129365;27;20473;-76
2021/08/19 06:31:10;;;;;;;4.63;4.33;;;20.50;99.90;;;;;;5117318;27;20474;-76
2021/08/19 06:33:37;;;;;;;5.93;4.40;;;20.50;99.90;;;;;;5128453;27;20979;-77
2021/08/19 06:36:07;;;;;;;4.87;4.50;;;20.50;99.90;;;;;;5123645;27;20544;-76
2021/08/19 06:38:33;;;;;;;5.23;4.60;;;20.60;99.90;;;;;;5120293;27;20499;-76
2021/08/19 06:41:00;;;;;;;5.27;4.87;;;20.60;99.90;;;;;;5130522;27;20518;-77
2021/08/19 06:43:26;;;;;;;5.13;4.83;;;20.50;99.90;;;;;;5118330;27;20834;-76
2021/08/19 06:45:53;;;;;;;5.20;4.90;;;20.60;99.90;;;;;;5125792;27;20477;-76
2021/08/19 06:48:19;;;;;;;5.63;5.10;;;20.60;99.90;;;;;;5125443;27;20540;-76
2021/08/19 06:50:46;;;;;;;5.33;4.83;;;20.60;99.90;;;;;;5124702;27;20505;-76
2021/08/19 06:53:14;;;;;;;5.57;5.00;;;20.70;99.90;;;;;;5133910;27;20481;-76
2021/08/19 06:55:40;;;;;;;5.80;5.30;;;20.80;99.90;;;;;;5119122;27;20843;-76
2021/08/19 06:58:07;;;;;;;4.63;4.27;;;20.90;99.90;;;;;;5121919;27;20441;-76
2021/08/19 07:00:34;;;;;;;5.00;4.60;;;21.00;99.90;;;;;;5129841;27;20460;-77
2021/08/19 07:03:00;;;;;;;5.20;4.73;;;21.10;99.90;;;;;;5128079;27;20480;-76
2021/08/19 07:05:27;;;;;;;5.50;5.00;;;21.20;99.90;;;;;;5130918;27;20532;-76
2021/08/19 07:07:58;;;;;;;6.80;4.80;;;21.20;99.90;;;;;;5130573;27;20571;-76
2021/08/19 07:10:27;;;;;;;6.10;5.37;;;21.10;99.90;;;;;;5131006;27;20444;-77
2021/08/19 07:12:53;;;;;;;7.30;4.83;;;21.10;99.90;;;;;;5128189;27;20795;-76
2021/08/19 07:15:20;;;;;;;5.73;5.13;;;21.00;99.90;;;;;;5119193;27;20960;-77
2021/08/19 07:17:47;;;;;;;7.37;5.23;;;20.90;99.90;;;;;;5130675;27;20532;-76
2021/08/19 07:20:13;;;;;;;4.27;4.07;;;20.80;99.90;;;;;;5130341;27;20444;-76
2021/08/19 07:22:44;;;;;;;5.20;4.70;;;20.60;99.90;;;;;;5129964;28;20480;-76
2021/08/19 07:25:11;;;;;;;5.17;4.80;;;20.60;99.90;;;;;;5115298;28;20803;-77
2021/08/19 07:27:39;;;;;;;5.40;4.37;;;20.70;99.90;;;;;;5115197;28;20478;-76
2021/08/19 07:30:07;;;;;;;5.93;5.03;;;20.80;99.90;;;;;;5114762;28;20955;-76
2021/08/19 07:32:35;;;;;;;6.53;5.00;;;20.70;99.90;;;;;;5124738;28;20965;-75
2021/08/19 07:35:01;;;;;;;5.50;4.50;;;20.60;99.90;;;;;;5114407;28;20951;-76
2021/08/19 07:37:28;;;;;;;4.67;4.37;;;20.70;99.90;;;;;;5127459;28;21018;-76
2021/08/19 07:39:55;;;;;;;5.20;4.80;;;20.70;99.90;;;;;;5120647;28;20436;-76
2021/08/19 07:42:21;;;;;;;5.83;4.93;;;20.90;99.90;;;;;;5119935;28;20919;-76
2021/08/19 07:44:49;;;;;;;4.93;4.53;;;20.90;99.90;;;;;;5128221;28;20462;-76
2021/08/19 07:47:16;;;;;;;5.47;5.00;;;21.10;99.90;;;;;;5116298;28;20484;-76
2021/08/19 07:49:42;;;;;;;5.23;4.83;;;21.20;99.90;;;;;;5126373;28;20533;-76
2021/08/19 07:52:09;;;;;;;5.73;4.80;;;21.30;99.90;;;;;;5131132;28;20475;-76
2021/08/19 07:54:35;;;;;;;7.57;5.27;;;21.20;99.90;;;;;;5133418;28;20527;-76
2021/08/19 07:57:03;;;;;;;5.60;4.23;;;21.20;99.90;;;;;;5116320;28;20479;-76
2021/08/19 07:59:30;;;;;;;4.40;4.07;;;21.20;99.90;;;;;;5128132;28;20811;-76
2021/08/19 08:01:59;;;;;;;10.30;5.83;;;21.20;99.90;;;;;;5121540;28;20527;-76
2021/08/19 08:04:25;;;;;;;5.80;5.20;;;21.40;99.90;;;;;;5120635;28;20453;-75
2021/08/19 08:06:52;;;;;;;5.50;4.80;;;21.50;99.90;;;;;;5129474;28;20500;-76
2021/08/19 08:09:18;;;;;;;4.90;3.93;;;21.50;99.90;;;;;;5116365;28;20473;-76
2021/08/19 08:11:45;;;;;;;4.73;4.30;;;21.50;99.90;;;;;;5126186;28;20446;-76
2021/08/19 08:14:12;;;;;;;5.67;4.93;;;21.40;99.90;;;;;;5123421;28;20476;-76
2021/08/19 08:16:38;;;;;;;5.13;4.63;;;21.30;99.90;;;;;;5127307;28;20532;-76
2021/08/19 08:19:07;;;;;;;5.37;4.97;;;21.50;99.90;;;;;;5114378;28;20518;-76
2021/08/19 08:21:36;;;;;;;4.63;4.23;;;21.50;99.90;;;;;;5118092;28;20476;-76
2021/08/19 08:24:04;;;;;;;5.20;4.63;;;21.50;99.90;;;;;;5123467;28;20450;-76
2021/08/19 08:26:30;;;;;;;6.50;3.60;;;21.50;99.90;;;;;;5126090;27;20963;-76
2021/08/19 08:28:57;;;;;;;7.33;4.40;;;21.60;99.90;;;;;;5119355;27;20532;-76
2021/08/19 08:31:24;;;;;;;4.50;4.10;;;21.80;99.90;;;;;;5132251;27;20528;-76
2021/08/19 08:33:51;;;;;;;4.70;4.30;;;21.90;99.90;;;;;;5124111;27;20923;-76
2021/08/19 08:36:19;;;;;;;3.90;3.60;;;22.00;99.90;;;;;;5124867;27;20445;-76
2021/08/19 08:38:46;;;;;;;4.70;4.30;;;22.00;99.90;;;;;;5132017;27;20527;-76
2021/08/19 08:41:13;;;;;;;4.40;4.00;;;22.00;99.90;;;;;;5119278;27;20862;-76
2021/08/19 08:43:40;;;;;;;3.87;3.47;;;22.00;99.90;;;;;;5130118;27;20477;-76
2021/08/19 08:46:10;;;;;;;5.00;4.40;;;22.20;99.90;;;;;;5125925;27;20451;-76
2021/08/19 08:48:37;;;;;;;4.40;4.00;;;22.10;99.90;;;;;;5122471;27;20529;-76
2021/08/19 08:51:04;;;;;;;4.73;4.43;;;22.10;99.90;;;;;;5134372;27;20477;-76
2021/08/19 08:53:32;;;;;;;8.23;4.30;;;22.00;99.90;;;;;;5136430;27;20532;-77
2021/08/19 08:55:58;;;;;;;4.40;4.10;;;21.90;99.90;;;;;;5127099;27;20532;-76
2021/08/19 08:58:25;;;;;;;6.93;4.93;;;21.80;99.90;;;;;;5128402;27;20469;-76
2021/08/19 09:00:51;;;;;;;4.73;4.33;;;21.90;99.90;;;;;;5119804;27;20552;-76
2021/08/19 09:03:19;;;;;;;4.73;4.00;;;21.90;99.90;;;;;;5132816;27;20532;-76
2021/08/19 09:05:48;;;;;;;4.37;3.97;;;21.80;99.90;;;;;;5123093;27;20472;-76
2021/08/19 09:08:16;;;;;;;4.87;4.47;;;21.80;99.90;;;;;;5124577;27;21017;-76
2021/08/19 09:10:45;;;;;;;4.13;3.67;;;21.80;99.90;;;;;;5130718;27;20437;-76
2021/08/19 09:13:15;;;;;;;4.80;4.30;;;21.90;99.90;;;;;;5118862;27;20437;-76
2021/08/19 09:15:42;;;;;;;4.63;4.10;;;22.10;99.90;;;;;;5130156;27;20804;-76
2021/08/19 09:18:08;;;;;;;8.43;4.77;;;22.20;99.90;;;;;;5125457;27;20777;-76
2021/08/19 09:20:36;;;;;;;4.03;3.63;;;22.30;99.90;;;;;;5129523;27;20532;-76
2021/08/19 09:23:05;;;;;;;4.17;3.87;;;22.40;99.90;;;;;;5118648;27;20971;-76
2021/08/19 09:25:34;;;;;;;4.70;4.30;;;22.60;99.90;;;;;;5130180;27;20521;-76
2021/08/19 09:28:15;;;;;;;4.30;3.90;;;22.70;99.90;;;;;;5124698;27;20485;-76
2021/08/19 09:30:44;;;;;;;4.30;3.93;;;22.70;99.90;;;;;;5120462;27;20456;-76
2021/08/19 09:33:11;;;;;;;3.90;3.20;;;22.80;99.90;;;;;;5131985;27;20437;-76
2021/08/19 09:35:38;;;;;;;5.10;3.70;;;22.90;99.90;;;;;;5121102;27;20448;-76
2021/08/19 09:38:09;;;;;;;4.13;3.73;;;23.00;99.90;;;;;;5125022;27;20956;-76
2021/08/19 09:40:36;;;;;;;6.67;4.53;;;23.10;99.90;;;;;;5129406;27;20491;-76
2021/08/19 09:43:03;;;;;;;5.50;4.53;;;23.20;99.90;;;;;;5118196;27;20517;-76
2021/08/19 09:45:32;;;;;;;4.00;3.50;;;23.10;99.90;;;;;;5130210;27;20998;-76
2021/08/19 09:48:09;;;;;;;5.27;4.80;;;23.20;99.90;;;;;;5123976;27;20513;-76
2021/08/19 09:50:36;;;;;;;4.57;4.00;;;23.40;99.90;;;;;;5125567;27;20473;-76
2021/08/19 09:53:16;;;;;;;5.97;4.57;;;23.50;99.90;;;;;;5135386;27;20452;-76
2021/08/19 09:55:43;;;;;;;5.50;5.10;;;23.50;99.90;;;;;;5128873;27;20536;-76
2021/08/19 09:58:10;;;;;;;5.53;5.03;;;23.40;99.90;;;;;;5135065;27;20453;-77
2021/08/19 10:00:40;;;;;;;5.60;5.10;;;23.20;99.90;;;;;;5135040;27;20468;-77
2021/08/19 10:03:08;;;;;;;5.40;4.63;;;23.00;99.90;;;;;;5117808;27;20495;-77
2021/08/19 10:05:35;;;;;;;6.03;5.50;;;22.80;99.90;;;;;;5118688;27;20449;-77
2021/08/19 10:08:02;;;;;;;4.97;4.57;;;22.90;99.90;;;;;;5128141;27;21033;-77
2021/08/19 10:10:29;;;;;;;6.30;5.30;;;22.70;99.90;;;;;;5117758;27;20487;-77
2021/08/19 10:12:59;;;;;;;4.30;3.90;;;22.80;99.90;;;;;;5130170;27;20537;-77
2021/08/19 10:15:27;;;;;;;4.63;4.13;;;23.00;99.90;;;;;;5124287;27;20441;-77
2021/08/19 10:17:59;;;;;;;5.80;4.50;;;23.20;99.90;;;;;;5121876;27;20524;-77
2021/08/19 10:20:29;;;;;;;5.63;4.73;;;23.60;99.90;;;;;;5131080;27;20987;-77
2021/08/19 10:22:58;;;;;;;5.10;4.20;;;23.80;99.90;;;;;;5118829;27;20610;-77
2021/08/19 10:25:26;;;;;;;4.50;4.10;;;24.00;99.90;;;;;;5125830;27;20473;-77
2021/08/19 10:28:11;;;;;;;4.43;3.60;;;24.20;99.90;;;;;;5126405;27;20445;-77
2021/08/19 10:30:47;;;;;;;4.97;3.90;;;24.20;99.90;;;;;;5117520;27;20470;-77
2021/08/19 10:33:42;;;;;;;4.47;4.10;;;24.40;99.90;;;;;;5127295;27;20489;-77
2021/08/19 10:36:42;;;;;;;3.60;3.30;;;24.50;99.90;;;;;;5128874;27;20447;-77
2021/08/19 10:39:28;;;;;;;5.00;4.17;;;24.70;99.90;;;;;;5127697;27;20873;-77
2021/08/19 10:41:55;;;;;;;4.10;3.67;;;24.80;99.90;;;;;;5126542;27;20503;-79
2021/08/19 10:44:30;;;;;;;4.23;3.87;;;24.90;99.90;;;;;;5117270;27;20468;-78
2021/08/19 10:46:57;;;;;;;4.30;4.00;;;24.90;99.90;;;;;;5118168;27;21167;-78
2021/08/19 10:49:39;;;;;;;4.13;3.83;;;25.00;99.90;;;;;;5125322;27;20465;-78
2021/08/19 10:52:29;;;;;;;5.40;5.00;;;25.20;99.90;;;;;;5130891;27;20456;-78
2021/08/19 10:55:15;;;;;;;5.47;4.53;;;25.20;99.90;;;;;;5118046;27;20441;-79
2021/08/19 10:57:46;;;;;;;4.87;4.00;;;25.30;99.90;;;;;;5125782;27;20851;-78
2021/08/19 11:00:14;;;;;;;4.87;4.40;;;25.20;99.90;;;;;;5123463;27;20452;-79
2021/08/19 11:02:41;;;;;;;5.63;4.60;;;25.10;99.90;;;;;;5129944;27;20557;-79
2021/08/19 11:05:11;;;;;;;5.20;4.70;;;24.80;99.90;;;;;;5119700;27;20500;-79
2021/08/19 11:07:46;;;;;;;5.23;4.73;;;24.50;99.90;;;;;;5126822;27;21004;-79
2021/08/19 11:10:20;;;;;;;4.50;4.10;;;24.20;99.90;;;;;;5122103;27;20445;-78
2021/08/19 11:12:48;;;;;;;5.87;4.30;;;24.00;99.90;;;;;;5115915;27;20517;-79
2021/08/19 11:15:15;;;;;;;5.13;4.63;;;24.00;99.90;;;;;;5125352;27;20438;-78
2021/08/19 11:17:50;;;;;;;5.27;4.87;;;24.00;99.90;;;;;;5121243;27;20903;-78
2021/08/19 11:20:24;;;;;;;5.13;4.33;;;24.20;99.90;;;;;;5123035;27;20437;-78
2021/08/19 11:23:02;;;;;;;4.90;4.50;;;24.50;99.90;;;;;;5122952;27;20511;-78
2021/08/19 11:25:29;;;;;;;5.03;4.07;;;24.90;99.90;;;;;;5125274;28;20447;-80
2021/08/19 11:27:56;;;;;;;4.80;4.30;;;25.10;99.90;;;;;;5121451;28;20527;-79
2021/08/19 11:30:33;;;;;;;5.83;4.63;;;25.20;99.90;;;;;;5121077;28;20436;-78
2021/08/19 11:33:13;;;;;;;4.73;4.27;;;25.30;99.90;;;;;;5118269;28;20469;-79
2021/08/19 11:35:43;;;;;;;4.37;3.97;;;25.50;99.90;;;;;;5121408;28;20447;-79
2021/08/19 11:38:11;;;;;;;4.50;4.10;;;25.70;99.90;;;;;;5124366;28;20947;-78
2021/08/19 11:40:38;;;;;;;3.90;3.17;;;25.70;99.90;;;;;;5115878;28;20920;-79
2021/08/19 11:43:22;;;;;;;3.60;3.37;;;25.80;99.90;;;;;;5120244;28;20559;-78
2021/08/19 11:45:50;;;;;;;4.17;3.67;;;26.00;99.90;;;;;;5117977;28;20480;-79
2021/08/19 11:48:20;;;;;;;4.00;3.70;;;26.10;99.90;;;;;;5117646;28;20448;-78
2021/08/19 11:50:54;;;;;;;4.33;3.93;;;26.20;99.90;;;;;;5124138;28;20449;-79
2021/08/19 11:53:21;;;;;;;14.00;3.80;;;26.30;99.90;;;;;;5127538;28;20498;-79
2021/08/19 11:55:48;;;;;;;5.10;3.90;;;26.30;99.90;;;;;;5127705;28;20944;-79
2021/08/19 11:58:16;;;;;;;3.73;3.43;;;26.20;99.90;;;;;;5127280;28;20480;-78
2021/08/19 12:00:59;;;;;;;3.67;3.37;;;26.10;99.90;;;;;;5124857;28;20443;-79
2021/08/19 12:03:26;;;;;;;4.23;3.93;;;26.10;99.90;;;;;;5121606;27;20511;-78
2021/08/19 12:06:00;;;;;;;6.93;3.37;;;26.10;99.90;;;;;;5121354;27;20481;-79
2021/08/19 12:08:27;;;;;;;4.10;3.67;;;26.10;99.90;;;;;;5122087;27;20528;-78
2021/08/19 12:10:54;;;;;;;5.57;3.70;;;26.30;99.90;;;;;;5125117;27;20484;-78
2021/08/19 12:13:21;;;;;;;4.80;3.50;;;26.40;99.90;;;;;;5121996;27;20484;-79
2021/08/19 12:15:48;;;;;;;7.07;3.63;;;26.60;99.90;;;;;;5122616;27;20901;-78
2021/08/19 12:18:21;;;;;;;3.77;3.47;;;26.70;99.90;;;;;;5121129;27;20530;-78
2021/08/19 12:20:47;;;;;;;7.17;3.80;;;26.90;99.90;;;;;;5124999;27;20804;-78
2021/08/19 12:23:20;;;;;;;6.20;3.50;;;26.90;99.90;;;;;;5122273;27;20476;-78
2021/08/19 12:25:49;;;;;;;3.70;3.40;;;26.90;99.90;;;;;;5121908;27;20445;-78
2021/08/19 12:28:17;;;;;;;3.30;3.10;;;26.80;99.90;;;;;;5130853;27;20452;-78
2021/08/19 12:30:57;;;;;;;4.23;3.43;;;26.90;99.90;;;;;;5127922;27;20445;-78
2021/08/19 12:33:35;;;;;;;3.60;3.10;;;26.90;99.90;;;;;;5130632;27;20452;-78
2021/08/19 12:36:19;;;;;;;3.80;3.53;;;27.00;99.90;;;;;;5127687;27;20951;-77
2021/08/19 12:38:50;;;;;;;4.20;3.80;;;26.90;99.90;;;;;;5124247;27;20452;-78
2021/08/19 12:41:19;;;;;;;3.10;2.90;;;26.90;99.90;;;;;;5121913;27;20472;-77
2021/08/19 12:43:47;;;;;;;4.93;4.40;;;26.70;99.90;;;;;;5120850;27;20945;-78
2021/08/19 12:46:15;;;;;;;5.93;5.43;;;26.40;99.90;;;;;;5130859;27;20528;-77
2021/08/19 12:48:43;;;;;;;4.80;4.40;;;25.90;99.90;;;;;;5127849;27;20473;-77
2021/08/19 12:51:21;;;;;;;3.60;3.10;;;25.30;99.90;;;;;;5132837;27;20527;-78
2021/08/19 12:54:09;;;;;;;3.53;3.23;;;24.80;99.90;;;;;;5130158;27;20497;-80